Terminal Aerodrome Forecast
Issued by NWS Mt. Holly, NJ

Home | Current Version | Previous Version | Text Only | Print | Product List | Glossary On
Versions: 1 2 3 4 5 6 7 8 9 10 11 12 13
529
FTUS41 KPHI 230520
TAFILG
TAF
KILG 230520Z 2306/2406 36005KT P6SM SCT050 BKN250
     FM231400 36006KT P6SM FEW200
     FM232300 33005KT P6SM SKC=

USA.gov is the U.S. government's official web portal to all federal, state and local government web resources and services.